»·PEaware :: PAA210 KSFO-KPDX

PAA210 :: KSFO-KPDX

FLIGHT INFORMATION

Flight Status: Arrived
Operator:
PanAm
More flights by this operator :: More flights under this callsign
Pilot: Anonymous 16446 (16446)
Aircraft: BOEING 727-200
(B722)
More flights by this aircraft type
Origin: KSFO San Francisco Intl
United States
Destination: KPDX Portland Intl
United States
More flights between these airports :: More routes between these airports
Route: SFO4 RBL J1 OED OCITY1
File this flight plan on PilotEdge
Remarks:
Altitude:
(Current/Filed)
28,000ft
Speed:
(Current/Filed)
475kts
Departed: 19-Aug-18 09:38 PM
Arrived: 19-Aug-18 10:49 PM
Distance/Time
Traveled:
478nm/1:11
Distance/Time
To Go:
Arrived

Flight Plot

Page will automatically refresh every two minutes.

Flight plan parsing failed; only flown route is shown


Map Options




Map Legend


Flown Route
Filed Route
Departure Airport
Arrival Airport
Navaid (VOR, NDB)
Fix

Horizontal Profiles

Position Reports

Time Latitude Longitude Heading Altitude Ground
Speed
19-Aug-18 20:58 37.613022 -122.385598 80 21ft 0kts
19-Aug-18 20:59 37.613022 -122.385598 80 21ft 0kts
19-Aug-18 21:00 37.613022 -122.385598 80 21ft 0kts
19-Aug-18 21:01 37.613022 -122.385598 80 21ft 0kts
19-Aug-18 21:02 37.613022 -122.385598 80 21ft 0kts
19-Aug-18 21:03 37.613022 -122.385598 80 21ft 0kts
19-Aug-18 21:04 37.613022 -122.385598 80 21ft 0kts
19-Aug-18 21:05 37.613022 -122.385598 80 21ft 0kts
19-Aug-18 21:06 37.613022 -122.385598 80 21ft 0kts
19-Aug-18 21:07 37.613022 -122.385598 80 21ft 0kts
19-Aug-18 21:08 37.613022 -122.385598 80 21ft 0kts
19-Aug-18 21:09 37.613022 -122.385598 80 21ft 0kts
19-Aug-18 21:10 37.613022 -122.385598 80 21ft 0kts
19-Aug-18 21:11 37.613022 -122.385598 80 21ft 0kts
19-Aug-18 21:12 37.613022 -122.385598 80 21ft 0kts
19-Aug-18 21:13 37.613022 -122.385598 80 21ft 0kts
19-Aug-18 21:14 37.613022 -122.385598 80 21ft 0kts
19-Aug-18 21:15 37.613022 -122.385598 80 21ft 0kts
19-Aug-18 21:16 37.613022 -122.385598 80 21ft 0kts
19-Aug-18 21:17 37.612979 -122.385898 80 21ft 2kts
19-Aug-18 21:18 37.613148 -122.386430 160 21ft 2kts
19-Aug-18 21:19 37.613453 -122.386378 208 21ft 0kts
19-Aug-18 21:20 37.613453 -122.386378 208 21ft 0kts
19-Aug-18 21:21 37.613453 -122.386378 208 21ft 0kts
19-Aug-18 21:22 37.613453 -122.386378 208 21ft 0kts
19-Aug-18 21:23 37.613453 -122.386378 208 21ft 0kts
19-Aug-18 21:24 37.613453 -122.386378 208 21ft 0kts
19-Aug-18 21:25 37.613427 -122.386396 208 21ft 1kts
19-Aug-18 21:26 37.611671 -122.387077 131 21ft 8kts
19-Aug-18 21:27 37.610750 -122.384924 110 21ft 0kts
19-Aug-18 21:28 37.610750 -122.384924 110 21ft 0kts
19-Aug-18 21:29 37.610750 -122.384924 110 21ft 0kts
19-Aug-18 21:30 37.610750 -122.384924 110 21ft 0kts
19-Aug-18 21:31 37.610750 -122.384924 110 21ft 0kts
19-Aug-18 21:32 37.610750 -122.384924 110 21ft 0kts
19-Aug-18 21:33 37.610750 -122.384924 110 21ft 0kts
19-Aug-18 21:34 37.610750 -122.384924 110 21ft 0kts
19-Aug-18 21:35 37.610750 -122.384924 110 21ft 0kts
19-Aug-18 21:36 37.610299 -122.384257 161 21ft 9kts
19-Aug-18 21:37 37.609398 -122.383380 116 21ft 0kts
19-Aug-18 21:38 37.609140 -122.382192 42 21ft 1kts
19-Aug-18 21:39 37.611314 -122.380677 27 21ft 74kts
19-Aug-18 21:40 37.650616 -122.351727 38 1297ft 220kts
19-Aug-18 21:41 37.703594 -122.309317 28 4733ft 239kts
19-Aug-18 21:42 37.763002 -122.290834 348 7040ft 270kts
19-Aug-18 21:43 37.832120 -122.315479 3 9106ft 285kts
19-Aug-18 21:44 37.913629 -122.313366 0 11003ft 324kts
19-Aug-18 21:45 38.008988 -122.311831 2 13018ft 349kts
19-Aug-18 21:46 38.106765 -122.319537 359 15105ft 362kts
19-Aug-18 21:47 38.207883 -122.318535 1 17022ft 372kts
19-Aug-18 21:48 38.312612 -122.314714 2 18736ft 382kts
19-Aug-18 21:49 38.419570 -122.310175 2 20255ft 391kts
19-Aug-18 21:50 38.528936 -122.305363 2 21608ft 399kts
19-Aug-18 21:51 38.640704 -122.300395 2 22905ft 407kts
19-Aug-18 21:52 38.754852 -122.295376 2 24072ft 414kts
19-Aug-18 21:53 38.868124 -122.290412 2 25744ft 404kts
19-Aug-18 21:54 38.982006 -122.285388 2 27180ft 414kts
19-Aug-18 21:55 39.099047 -122.280172 2 28007ft 439kts
19-Aug-18 21:56 39.223760 -122.274603 2 28006ft 477kts
19-Aug-18 21:57 39.360706 -122.268411 2 28003ft 509kts
19-Aug-18 21:58 39.502998 -122.262005 2 27998ft 515kts
19-Aug-18 21:59 39.646210 -122.255557 2 27998ft 518kts
19-Aug-18 22:00 39.790360 -122.249051 2 27998ft 521kts
19-Aug-18 22:01 39.934947 -122.242507 2 27997ft 523kts
19-Aug-18 22:02 40.080180 -122.235931 2 27997ft 524kts
19-Aug-18 22:03 40.216235 -122.262070 345 28001ft 523kts
19-Aug-18 22:04 40.357380 -122.306242 348 27998ft 524kts
19-Aug-18 22:05 40.498248 -122.353464 346 28006ft 523kts
19-Aug-18 22:06 40.639913 -122.396455 348 27998ft 524kts
19-Aug-18 22:07 40.782265 -122.435664 349 27997ft 525kts
19-Aug-18 22:08 40.925058 -122.474594 349 27997ft 525kts
19-Aug-18 22:09 41.067754 -122.513703 349 27997ft 526kts
19-Aug-18 22:10 41.203720 -122.550816 349 27997ft 526kts
19-Aug-18 22:11 41.346355 -122.590197 349 27997ft 526kts
19-Aug-18 22:12 41.489228 -122.629910 349 27997ft 526kts
19-Aug-18 22:13 41.628812 -122.676980 337 27990ft 525kts
19-Aug-18 22:14 41.769211 -122.726272 348 27999ft 525kts
19-Aug-18 22:15 41.912082 -122.764547 349 27997ft 525kts
19-Aug-18 22:16 42.055163 -122.801715 349 27997ft 526kts
19-Aug-18 22:17 42.195348 -122.837951 349 27997ft 526kts
19-Aug-18 22:18 42.338742 -122.875372 349 27997ft 526kts
19-Aug-18 22:19 42.482175 -122.912448 352 27998ft 526kts
19-Aug-18 22:20 42.627047 -122.899116 4 27996ft 525kts
19-Aug-18 22:21 42.772597 -122.884535 4 27997ft 526kts
19-Aug-18 22:22 42.918588 -122.870483 4 27997ft 527kts
19-Aug-18 22:23 43.064464 -122.856432 4 27997ft 527kts
19-Aug-18 22:24 43.205436 -122.842889 4 27997ft 527kts
19-Aug-18 22:25 43.350946 -122.828767 4 27997ft 527kts
19-Aug-18 22:26 43.497205 -122.814604 3 27996ft 527kts
19-Aug-18 22:27 43.642595 -122.796461 5 27998ft 527kts
19-Aug-18 22:28 43.788606 -122.780849 4 27997ft 527kts
19-Aug-18 22:29 43.923975 -122.768016 4 27997ft 528kts
19-Aug-18 22:30 44.070094 -122.754255 4 27997ft 528kts
19-Aug-18 22:31 44.213891 -122.740918 4 27997ft 528kts
19-Aug-18 22:32 44.359654 -122.727078 4 27363ft 524kts
19-Aug-18 22:33 44.504363 -122.713140 4 25943ft 522kts
19-Aug-18 22:34 44.646476 -122.699427 4 24036ft 505kts
19-Aug-18 22:35 44.785216 -122.685918 4 20264ft 495kts
19-Aug-18 22:36 44.918983 -122.672819 4 17000ft 473kts
19-Aug-18 22:37 45.043533 -122.660622 4 11993ft 410kts
19-Aug-18 22:38 45.128032 -122.652395 5 12305ft 293kts
19-Aug-18 22:39 45.205115 -122.620327 26 11172ft 287kts
19-Aug-18 22:40 45.264525 -122.548826 50 7096ft 290kts
19-Aug-18 22:41 45.300317 -122.465571 60 6215ft 214kts
19-Aug-18 22:42 45.329410 -122.391157 60 4754ft 216kts
19-Aug-18 22:43 45.369950 -122.333626 0 3965ft 243kts
19-Aug-18 22:44 45.436461 -122.336907 358 3924ft 214kts
19-Aug-18 22:45 45.488758 -122.344135 325 3744ft 191kts
19-Aug-18 22:46 45.514574 -122.413274 298 2780ft 190kts
19-Aug-18 22:47 45.538428 -122.475678 299 1744ft 154kts
19-Aug-18 22:48 45.556907 -122.523118 299 1016ft 138kts
19-Aug-18 22:49 45.576262 -122.572836 299 235ft 137kts
19-Aug-18 22:50 45.586490 -122.597157 349 27ft 14kts
19-Aug-18 22:51 45.586808 -122.597162 35 28ft 0kts
19-Aug-18 22:52 45.587671 -122.596869 352 29ft 3kts
19-Aug-18 22:53 45.588412 -122.596370 28 29ft 0kts
19-Aug-18 22:54 45.588412 -122.596370 28 29ft 0kts
19-Aug-18 22:55 45.588412 -122.596370 28 29ft 0kts
19-Aug-18 22:56 45.588412 -122.596370 28 29ft 0kts
19-Aug-18 22:57 45.588412 -122.596370 28 29ft 0kts
19-Aug-18 22:58 45.588412 -122.596370 28 29ft 0kts
19-Aug-18 22:59 45.588412 -122.596370 28 29ft 0kts
19-Aug-18 23:00 45.588412 -122.596370 28 29ft 0kts
19-Aug-18 23:01 45.588412 -122.596370 28 29ft 0kts
19-Aug-18 23:02 45.588412 -122.596370 28 29ft 0kts
19-Aug-18 23:03 45.588412 -122.596370 28 29ft 0kts
19-Aug-18 23:04 45.588412 -122.596370 28 29ft 0kts
19-Aug-18 23:05 45.588412 -122.596370 28 29ft 0kts

Navigation Log

Ident Type
Flight plan parsing failed, navigation log unavailable